METAR Data
IDs: Format: Raw Decoded Include TAF

Data at: 0212 UTC 21 Sep 2021

METAR for:KORD (Chicago/O'Hare Intl, IL, US)
Text:KORD 210151Z 18011G18KT 10SM SCT042 BKN100 25/21 A2984 RMK AO2 SLP100 T02500211
Temperature: 25.0°C ( 77°F)
Dewpoint: 21.1°C ( 70°F) [RH = 79%]
Pressure (altimeter):29.84 inches Hg (1010.6 mb) [Sea level pressure: 1010.0 mb]
Winds:from the S (180 degrees) at 13 MPH (11 knots; 5.7 m/s) gusting to 21 MPH (18 knots; 9.3 m/s)
Visibility:10 or more sm (16+ km)
Ceiling:10000 feet AGL
Clouds: scattered clouds at 4200 feet AGL, broken clouds at 10000 feet AGL